Time;durP1;ratioP1;P1;durP2;ratioP2;P2;SDS_P1;SDS_P2;PMS_P1;PMS_P2;Temp;Humidity;BMP_temperature;BMP_pressure;BME280_temperature;BME280_humidity;BME280_pressure;Samples;Min_cycle;Max_cycle;Signal;HPM_P1;HPM_P2
2023/10/05 00:01:44;;;;;;;5.27;3.00;;;;;;;;;;5025802;28;20265;-89
2023/10/05 00:04:15;;;;;;;5.37;3.17;;;;;;;;;;5025023;28;20229;-89
2023/10/05 00:06:44;;;;;;;7.20;3.30;;;;;;;;;;5033562;28;20233;-89
2023/10/05 00:09:15;;;;;;;6.00;3.50;;;;;;;;;;5023126;28;20258;-89
2023/10/05 00:11:44;;;;;;;9.37;3.47;;;;;;;;;;5028069;28;20214;-89
2023/10/05 00:14:12;;;;;;;6.07;3.13;;;;;;;;;;5023156;28;20249;-88
2023/10/05 00:16:44;;;;;;;4.93;3.53;;;;;;;;;;5022051;28;20204;-89
2023/10/05 00:19:12;;;;;;;3.93;3.13;;;;;;;;;;5031867;28;20238;-88
2023/10/05 00:21:42;;;;;;;6.07;3.07;;;;;;;;;;5032798;28;20294;-89
2023/10/05 00:24:11;;;;;;;5.63;3.63;;;;;;;;;;5031147;28;20261;-89
2023/10/05 00:26:39;;;;;;;4.83;3.00;;;;;;;;;;5021574;28;20294;-88
2023/10/05 00:29:18;;;;;;;3.30;2.80;;;;;;;;;;5031203;28;20241;-88
2023/10/05 00:31:45;;;;;;;8.37;3.50;;;;;;;;;;5027447;28;20191;-88
2023/10/05 00:34:17;;;;;;;4.13;3.00;;;;;;;;;;5023403;28;20235;-89
2023/10/05 00:36:49;;;;;;;4.47;3.23;;;;;;;;;;5034040;28;20204;-89
2023/10/05 00:39:19;;;;;;;7.37;3.23;;;;;;;;;;5024988;28;20242;-89
2023/10/05 00:41:47;;;;;;;6.20;3.80;;;;;;;;;;5025165;28;20241;-89
2023/10/05 00:44:15;;;;;;;8.10;3.57;;;;;;;;;;5033008;28;20240;-89
2023/10/05 00:46:43;;;;;;;5.87;3.47;;;;;;;;;;5033286;28;20289;-89
2023/10/05 00:49:16;;;;;;;5.53;2.77;;;;;;;;;;5024468;28;20238;-89
2023/10/05 00:51:49;;;;;;;4.87;3.50;;;;;;;;;;5033227;28;20272;-88
2023/10/05 00:54:22;;;;;;;5.70;3.20;;;;;;;;;;5022107;28;20262;-90
2023/10/05 00:56:50;;;;;;;6.80;3.37;;;;;;;;;;5013379;28;20188;-89
2023/10/05 00:59:20;;;;;;;4.37;2.73;;;;;;;;;;5022733;28;20767;-88
2023/10/05 01:02:04;;;;;;;4.33;3.47;;;;;;;;;;5025937;28;20271;-89
2023/10/05 01:04:52;;;;;;;5.53;3.50;;;;;;;;;;5025181;28;20242;-89
2023/10/05 01:07:26;;;;;;;5.83;3.03;;;;;;;;;;5029031;28;20270;-89
2023/10/05 01:10:21;;;;;;;6.53;3.17;;;;;;;;;;5032444;28;20256;-89
2023/10/05 01:12:45;;;;;;;5.57;3.13;;;;;;;;;;5016731;28;20207;-88
2023/10/05 01:15:19;;;;;;;6.93;3.37;;;;;;;;;;5030533;28;20273;-89
2023/10/05 01:17:47;;;;;;;5.03;3.10;;;;;;;;;;5019504;28;20191;-88
2023/10/05 01:20:23;;;;;;;6.47;3.47;;;;;;;;;;5015810;28;20243;-89
2023/10/05 01:22:54;;;;;;;7.43;3.57;;;;;;;;;;5025859;28;20251;-90
2023/10/05 01:25:24;;;;;;;7.93;3.27;;;;;;;;;;5023926;28;20303;-89
2023/10/05 01:27:52;;;;;;;6.20;3.47;;;;;;;;;;5026127;28;20210;-89
2023/10/05 01:30:19;;;;;;;3.70;3.30;;;;;;;;;;5031526;28;20243;-89
2023/10/05 01:32:49;;;;;;;6.70;3.30;;;;;;;;;;5034607;28;20199;-90
2023/10/05 01:35:19;;;;;;;3.17;2.87;;;;;;;;;;5027993;28;20227;-89
2023/10/05 01:37:47;;;;;;;6.97;3.90;;;;;;;;;;5028650;28;20198;-89
2023/10/05 01:40:21;;;;;;;5.47;3.43;;;;;;;;;;5016938;28;20238;-89
2023/10/05 01:42:52;;;;;;;7.40;4.07;;;;;;;;;;5023273;28;20198;-89
2023/10/05 01:45:23;;;;;;;7.33;3.43;;;;;;;;;;5033079;28;20258;-88
2023/10/05 01:47:51;;;;;;;5.87;3.13;;;;;;;;;;5016711;28;20199;-89
2023/10/05 01:50:19;;;;;;;3.37;3.03;;;;;;;;;;5018721;28;20239;-89
2023/10/05 01:52:52;;;;;;;4.47;3.63;;;;;;;;;;5036696;28;20207;-88
2023/10/05 01:55:20;;;;;;;6.13;3.03;;;;;;;;;;5033993;28;20241;-89
2023/10/05 01:57:48;;;;;;;12.70;3.87;;;;;;;;;;5024875;28;20199;-89
2023/10/05 02:00:20;;;;;;;4.07;3.47;;;;;;;;;;5025942;28;20768;-89
2023/10/05 02:02:48;;;;;;;6.40;3.47;;;;;;;;;;5022469;28;20208;-89
2023/10/05 02:05:18;;;;;;;6.57;3.37;;;;;;;;;;5034729;28;20284;-89
2023/10/05 02:07:45;;;;;;;12.07;3.77;;;;;;;;;;5036648;28;20205;-89
2023/10/05 02:10:13;;;;;;;6.33;3.70;;;;;;;;;;5035269;28;20238;-88
2023/10/05 02:12:41;;;;;;;6.37;3.43;;;;;;;;;;5036123;28;20191;-89
2023/10/05 02:15:13;;;;;;;8.03;3.47;;;;;;;;;;5035271;28;20238;-89
2023/10/05 02:17:45;;;;;;;5.57;2.90;;;;;;;;;;5027856;28;20222;-89
2023/10/05 02:20:25;;;;;;;5.87;3.60;;;;;;;;;;5033939;28;20243;-89
2023/10/05 02:22:54;;;;;;;8.47;3.70;;;;;;;;;;5015963;28;20203;-88
2023/10/05 02:25:25;;;;;;;9.40;3.30;;;;;;;;;;5026116;28;20322;-88
2023/10/05 02:27:52;;;;;;;6.27;3.70;;;;;;;;;;5027788;28;20264;-88
2023/10/05 02:30:27;;;;;;;6.93;3.60;;;;;;;;;;5035087;28;20234;-88
2023/10/05 02:32:58;;;;;;;4.20;3.20;;;;;;;;;;5020644;28;20223;-88
2023/10/05 02:35:29;;;;;;;7.37;3.93;;;;;;;;;;5019765;28;20253;-89
2023/10/05 02:37:58;;;;;;;4.43;3.47;;;;;;;;;;5035245;28;20568;-88
2023/10/05 02:40:34;;;;;;;9.70;3.77;;;;;;;;;;5034771;28;20776;-89
2023/10/05 02:43:07;;;;;;;3.83;3.13;;;;;;;;;;5024389;28;20257;-88
2023/10/05 02:45:36;;;;;;;5.17;3.37;;;;;;;;;;5034819;28;20579;-88
2023/10/05 02:48:06;;;;;;;5.13;3.67;;;;;;;;;;5035063;28;20672;-89
2023/10/05 02:50:37;;;;;;;4.33;3.60;;;;;;;;;;5019093;28;20237;-89
2023/10/05 02:53:06;;;;;;;6.83;3.60;;;;;;;;;;5035150;28;20290;-89
2023/10/05 02:55:35;;;;;;;7.07;4.00;;;;;;;;;;5034172;28;20230;-88
2023/10/05 02:58:03;;;;;;;5.70;3.53;;;;;;;;;;5035056;28;20257;-88
2023/10/05 03:00:33;;;;;;;4.50;3.50;;;;;;;;;;5026374;28;20239;-89
2023/10/05 03:03:03;;;;;;;5.57;3.47;;;;;;;;;;5034761;28;20195;-88
2023/10/05 03:05:32;;;;;;;7.57;3.60;;;;;;;;;;5022915;28;20596;-89
2023/10/05 03:07:59;;;;;;;5.80;3.70;;;;;;;;;;5022645;28;20248;-89
2023/10/05 03:10:28;;;;;;;5.27;3.63;;;;;;;;;;5026017;28;20239;-89
2023/10/05 03:12:55;;;;;;;7.67;3.90;;;;;;;;;;5034784;28;20226;-89
2023/10/05 03:15:27;;;;;;;8.07;4.20;;;;;;;;;;5025716;28;20238;-88
2023/10/05 03:17:56;;;;;;;4.97;3.13;;;;;;;;;;5020025;28;20200;-88
2023/10/05 03:20:24;;;;;;;5.63;3.60;;;;;;;;;;5022397;28;20270;-89
2023/10/05 03:22:55;;;;;;;8.33;3.80;;;;;;;;;;5023069;28;20366;-88
2023/10/05 03:25:23;;;;;;;7.33;3.47;;;;;;;;;;5032160;28;20238;-89
2023/10/05 03:27:50;;;;;;;7.77;3.80;;;;;;;;;;5034671;28;20203;-89
2023/10/05 03:30:17;;;;;;;5.47;3.83;;;;;;;;;;5033544;28;20708;-89
2023/10/05 03:32:48;;;;;;;6.03;3.43;;;;;;;;;;5034340;28;20661;-89
2023/10/05 03:35:22;;;;;;;8.20;3.80;;;;;;;;;;5033759;28;20239;-89
2023/10/05 03:37:49;;;;;;;4.17;3.47;;;;;;;;;;5034361;28;20665;-89
2023/10/05 03:40:22;;;;;;;6.60;3.53;;;;;;;;;;5034446;28;20296;-89
2023/10/05 03:42:57;;;;;;;5.73;3.13;;;;;;;;;;5028841;28;20616;-88
2023/10/05 03:45:24;;;;;;;5.90;3.60;;;;;;;;;;5032879;28;20234;-89
2023/10/05 03:47:53;;;;;;;6.90;3.47;;;;;;;;;;5034106;28;20209;-89
2023/10/05 03:50:21;;;;;;;5.57;3.90;;;;;;;;;;5033656;28;20234;-89
2023/10/05 03:52:48;;;;;;;6.70;3.87;;;;;;;;;;5033933;28;20199;-89
2023/10/05 03:55:18;;;;;;;5.30;3.63;;;;;;;;;;5032738;28;20241;-89
2023/10/05 03:57:48;;;;;;;6.70;3.97;;;;;;;;;;5033976;28;20641;-89
2023/10/05 04:00:31;;;;;;;4.50;3.37;;;;;;;;;;5033051;28;20268;-89
2023/10/05 04:02:59;;;;;;;5.20;3.83;;;;;;;;;;5033885;28;20187;-89
2023/10/05 04:05:26;;;;;;;5.90;3.50;;;;;;;;;;5030818;28;20231;-89
2023/10/05 04:07:55;;;;;;;6.47;3.33;;;;;;;;;;5019630;28;20591;-88
2023/10/05 04:10:23;;;;;;;10.00;4.07;;;;;;;;;;5024185;28;20230;-88
2023/10/05 04:12:54;;;;;;;5.53;3.83;;;;;;;;;;5033849;28;20195;-89
2023/10/05 04:15:21;;;;;;;5.90;3.70;;;;;;;;;;5033644;28;20237;-89
2023/10/05 04:17:49;;;;;;;4.27;3.40;;;;;;;;;;5034201;28;20279;-90
2023/10/05 04:20:19;;;;;;;5.53;3.60;;;;;;;;;;5017238;28;20658;-90
2023/10/05 04:22:49;;;;;;;7.10;3.77;;;;;;;;;;5026636;28;20199;-90
2023/10/05 04:25:17;;;;;;;7.10;3.43;;;;;;;;;;5025597;28;20250;-90
2023/10/05 04:27:46;;;;;;;5.90;3.70;;;;;;;;;;5021888;28;20203;-90
2023/10/05 04:30:18;;;;;;;6.57;3.37;;;;;;;;;;5030591;28;20242;-90
2023/10/05 04:32:45;;;;;;;5.07;3.77;;;;;;;;;;5034404;28;20203;-89
2023/10/05 04:35:22;;;;;;;4.27;3.60;;;;;;;;;;5033196;28;20242;-90
2023/10/05 04:37:49;;;;;;;4.93;3.57;;;;;;;;;;5034699;28;20241;-90
2023/10/05 04:40:17;;;;;;;5.30;4.00;;;;;;;;;;5033691;28;20242;-90
2023/10/05 04:42:45;;;;;;;7.53;3.83;;;;;;;;;;5034328;28;20222;-91
2023/10/05 04:45:14;;;;;;;9.33;3.77;;;;;;;;;;5033398;28;20612;-91
2023/10/05 04:47:43;;;;;;;5.50;3.60;;;;;;;;;;5034578;28;20664;-92
2023/10/05 04:50:15;;;;;;;6.43;3.67;;;;;;;;;;5033877;28;20563;-91
2023/10/05 04:52:45;;;;;;;6.10;3.47;;;;;;;;;;5014258;28;20563;-91
2023/10/05 04:55:18;;;;;;;7.93;3.87;;;;;;;;;;5029504;28;20327;-89
2023/10/05 04:57:55;;;;;;;7.73;4.40;;;;;;;;;;5032307;28;20198;-86
2023/10/05 05:03:33;;;;;;;5.50;3.73;;;;;;;;;;5031368;28;20205;-85
2023/10/05 05:06:10;;;;;;;7.83;4.13;;;;;;;;;;5046025;28;20234;-84
2023/10/05 05:08:39;;;;;;;10.73;4.17;;;;;;;;;;5050542;28;20230;-84
2023/10/05 05:11:11;;;;;;;7.50;3.80;;;;;;;;;;5050588;28;20672;-81
2023/10/05 05:13:38;;;;;;;6.83;4.20;;;;;;;;;;5046797;28;20606;-81
2023/10/05 05:16:07;;;;;;;7.27;4.07;;;;;;;;;;5050666;28;20364;-83
2023/10/05 05:18:38;;;;;;;5.63;3.30;;;;;;;;;;5050227;28;20567;-83
2023/10/05 05:21:07;;;;;;;13.40;4.20;;;;;;;;;;5050946;28;20725;-80
2023/10/05 05:23:35;;;;;;;9.07;4.00;;;;;;;;;;5050198;28;20628;-80
2023/10/05 05:26:03;;;;;;;5.67;4.13;;;;;;;;;;5050538;28;20205;-80
2023/10/05 05:28:30;;;;;;;6.00;4.10;;;;;;;;;;5049940;28;20210;-80
2023/10/05 05:31:00;;;;;;;6.33;4.03;;;;;;;;;;5051091;28;20197;-80
2023/10/05 05:33:27;;;;;;;9.70;4.47;;;;;;;;;;5050204;28;20213;-80
2023/10/05 05:35:56;;;;;;;6.20;3.83;;;;;;;;;;5050869;28;20217;-80
2023/10/05 05:38:23;;;;;;;9.30;3.70;;;;;;;;;;5049748;28;20703;-81
2023/10/05 05:40:53;;;;;;;6.20;3.67;;;;;;;;;;5050909;28;20209;-81
2023/10/05 05:43:21;;;;;;;11.13;5.07;;;;;;;;;;5050068;28;20676;-82
2023/10/05 05:45:48;;;;;;;10.80;4.40;;;;;;;;;;5050841;28;20194;-81
2023/10/05 05:48:15;;;;;;;5.50;3.57;;;;;;;;;;5045739;28;20310;-81
2023/10/05 05:50:43;;;;;;;7.80;4.57;;;;;;;;;;5050155;28;20237;-81
2023/10/05 05:53:12;;;;;;;7.40;4.07;;;;;;;;;;5050638;28;20301;-81
2023/10/05 05:55:42;;;;;;;7.00;4.30;;;;;;;;;;5049669;28;20299;-81
2023/10/05 05:58:14;;;;;;;6.07;4.03;;;;;;;;;;5050453;28;20946;-81
2023/10/05 06:00:41;;;;;;;6.27;4.13;;;;;;;;;;5050313;28;20704;-82
2023/10/05 06:03:11;;;;;;;7.83;3.67;;;;;;;;;;5050270;28;20202;-82
2023/10/05 06:05:38;;;;;;;9.23;3.87;;;;;;;;;;5049846;28;20226;-81
2023/10/05 06:08:09;;;;;;;9.93;4.30;;;;;;;;;;5049982;28;20202;-81
2023/10/05 06:10:37;;;;;;;6.70;4.23;;;;;;;;;;5048858;28;20576;-80
2023/10/05 06:13:07;;;;;;;7.80;4.07;;;;;;;;;;5049944;28;20207;-80
2023/10/05 06:15:34;;;;;;;7.63;4.00;;;;;;;;;;5030596;28;20234;-80
2023/10/05 06:18:03;;;;;;;4.43;3.70;;;;;;;;;;5030431;28;20269;-83
2023/10/05 06:20:30;;;;;;;5.93;3.90;;;;;;;;;;5033567;28;20231;-83
2023/10/05 06:22:58;;;;;;;12.10;5.20;;;;;;;;;;5034310;28;20203;-83
2023/10/05 06:25:26;;;;;;;7.83;3.83;;;;;;;;;;5033486;28;20253;-83
2023/10/05 06:27:54;;;;;;;8.07;3.87;;;;;;;;;;5034230;28;20207;-88
2023/10/05 06:30:21;;;;;;;9.40;4.57;;;;;;;;;;5033280;28;20318;-82
2023/10/05 06:32:48;;;;;;;14.30;4.47;;;;;;;;;;5033570;28;20203;-83
2023/10/05 06:35:17;;;;;;;9.30;4.27;;;;;;;;;;5033424;28;20317;-83
2023/10/05 06:37:45;;;;;;;5.57;4.03;;;;;;;;;;5025579;28;20202;-83
2023/10/05 06:40:13;;;;;;;9.90;4.90;;;;;;;;;;5032873;28;20242;-83
2023/10/05 06:42:41;;;;;;;8.17;4.27;;;;;;;;;;5033778;28;20699;-83
2023/10/05 06:45:13;;;;;;;7.47;4.77;;;;;;;;;;5033617;28;20227;-83
2023/10/05 06:47:40;;;;;;;9.77;4.43;;;;;;;;;;5033819;28;20206;-83
2023/10/05 06:50:09;;;;;;;9.93;4.00;;;;;;;;;;5048614;28;20695;-83
2023/10/05 06:52:39;;;;;;;8.80;4.23;;;;;;;;;;5053861;28;20233;-83
2023/10/05 06:55:07;;;;;;;9.87;4.10;;;;;;;;;;5053344;28;20311;-83
2023/10/05 06:57:35;;;;;;;11.17;4.43;;;;;;;;;;5053506;28;20229;-83
2023/10/05 07:00:11;;;;;;;7.83;3.97;;;;;;;;;;5052901;28;20259;-83
2023/10/05 07:02:39;;;;;;;12.80;3.93;;;;;;;;;;5053793;28;20205;-83
2023/10/05 07:05:06;;;;;;;6.07;4.07;;;;;;;;;;5053000;28;20321;-83
2023/10/05 07:07:34;;;;;;;13.13;5.03;;;;;;;;;;5053411;28;20692;-85
2023/10/05 07:10:03;;;;;;;9.77;4.47;;;;;;;;;;5053352;28;20244;-84
2023/10/05 07:12:30;;;;;;;7.57;4.07;;;;;;;;;;5050070;28;20672;-85
2023/10/05 07:14:57;;;;;;;12.67;3.63;;;;;;;;;;5052527;28;20230;-85
2023/10/05 07:17:26;;;;;;;15.97;5.07;;;;;;;;;;5053002;28;20206;-84
2023/10/05 07:19:54;;;;;;;9.17;4.13;;;;;;;;;;5052412;28;20230;-85
2023/10/05 07:22:22;;;;;;;7.80;4.57;;;;;;;;;;5053540;28;20699;-84
2023/10/05 07:24:49;;;;;;;8.23;3.90;;;;;;;;;;5052185;28;20768;-85
2023/10/05 07:27:16;;;;;;;7.43;4.70;;;;;;;;;;5052934;28;20210;-83
2023/10/05 07:29:45;;;;;;;8.37;4.23;;;;;;;;;;5052086;28;20275;-85
2023/10/05 07:32:13;;;;;;;8.13;4.07;;;;;;;;;;5052873;28;20210;-83
2023/10/05 07:34:40;;;;;;;9.47;4.40;;;;;;;;;;5052917;28;20256;-83
2023/10/05 07:37:10;;;;;;;7.60;3.73;;;;;;;;;;5052497;28;20256;-83
2023/10/05 07:39:38;;;;;;;10.90;4.60;;;;;;;;;;5051077;28;20739;-83
2023/10/05 07:42:08;;;;;;;12.77;5.47;;;;;;;;;;5052789;28;20206;-83
2023/10/05 07:44:36;;;;;;;10.33;4.30;;;;;;;;;;5051212;28;20313;-84
2023/10/05 07:47:03;;;;;;;11.90;4.00;;;;;;;;;;5052263;28;20608;-84
2023/10/05 07:49:30;;;;;;;11.10;3.93;;;;;;;;;;5051035;28;20237;-85
2023/10/05 07:51:57;;;;;;;6.80;4.30;;;;;;;;;;5046495;28;20202;-83
2023/10/05 07:54:27;;;;;;;9.43;4.00;;;;;;;;;;5050913;28;20703;-82
2023/10/05 07:56:54;;;;;;;7.73;3.67;;;;;;;;;;5051691;28;20229;-83
2023/10/05 07:59:23;;;;;;;9.63;3.30;;;;;;;;;;5051079;28;20233;-83
2023/10/05 08:01:52;;;;;;;14.33;4.03;;;;;;;;;;5048580;28;20245;-83
2023/10/05 08:04:19;;;;;;;4.87;3.43;;;;;;;;;;5050917;28;20795;-83
2023/10/05 08:06:46;;;;;;;6.23;3.10;;;;;;;;;;5051188;28;20226;-83
2023/10/05 08:09:15;;;;;;;5.20;3.03;;;;;;;;;;5050975;28;20230;-81
2023/10/05 08:11:43;;;;;;;8.07;3.83;;;;;;;;;;5051212;28;20217;-83
2023/10/05 08:14:11;;;;;;;7.53;3.20;;;;;;;;;;5046172;28;20232;-82
2023/10/05 08:16:39;;;;;;;5.17;3.07;;;;;;;;;;5050482;28;20284;-82
2023/10/05 08:19:06;;;;;;;10.27;4.33;;;;;;;;;;5050512;28;20283;-80
2023/10/05 08:21:34;;;;;;;7.87;3.13;;;;;;;;;;5051476;28;20206;-82
2023/10/05 08:24:02;;;;;;;5.40;3.47;;;;;;;;;;5050715;28;20226;-81
2023/10/05 08:26:29;;;;;;;6.20;2.80;;;;;;;;;;5051343;28;20578;-83
2023/10/05 08:28:58;;;;;;;4.77;3.17;;;;;;;;;;5050666;28;20586;-80
2023/10/05 08:31:25;;;;;;;6.40;3.20;;;;;;;;;;5051389;28;20218;-80
2023/10/05 08:33:53;;;;;;;8.57;3.67;;;;;;;;;;5050268;28;20230;-80
2023/10/05 08:36:20;;;;;;;5.20;3.50;;;;;;;;;;5050969;28;20225;-80
2023/10/05 08:38:49;;;;;;;7.20;3.43;;;;;;;;;;5050297;28;20241;-81
2023/10/05 08:41:25;;;;;;;9.53;3.50;;;;;;;;;;5050147;28;20206;-80
2023/10/05 08:43:54;;;;;;;5.83;3.53;;;;;;;;;;5042354;28;20250;-82
2023/10/05 08:46:23;;;;;;;5.93;2.90;;;;;;;;;;5050711;28;20283;-80
2023/10/05 08:48:50;;;;;;;8.23;3.40;;;;;;;;;;5050135;28;20329;-80
2023/10/05 08:51:17;;;;;;;4.93;3.50;;;;;;;;;;5050561;28;20719;-81
2023/10/05 08:53:54;;;;;;;8.00;3.17;;;;;;;;;;5050336;28;20324;-80
2023/10/05 08:56:22;;;;;;;10.23;3.47;;;;;;;;;;5050789;28;20232;-80
2023/10/05 08:58:51;;;;;;;7.87;3.37;;;;;;;;;;5050146;28;20230;-81
2023/10/05 09:01:29;;;;;;;7.50;3.17;;;;;;;;;;5050324;28;20212;-83
2023/10/05 09:04:11;;;;;;;4.90;2.87;;;;;;;;;;5047661;28;20528;-83
2023/10/05 09:06:47;;;;;;;4.87;3.17;;;;;;;;;;5051079;28;20205;-83
2023/10/05 09:09:14;;;;;;;3.07;2.40;;;;;;;;;;5050371;28;20624;-82
2023/10/05 09:11:41;;;;;;;4.53;2.47;;;;;;;;;;5050534;28;20601;-83
2023/10/05 09:14:13;;;;;;;8.90;3.70;;;;;;;;;;5050430;28;20229;-82
2023/10/05 09:16:42;;;;;;;7.63;3.30;;;;;;;;;;5051049;28;20645;-83
2023/10/05 09:19:12;;;;;;;7.43;3.67;;;;;;;;;;5049783;28;20226;-83
2023/10/05 09:22:10;;;;;;;5.13;2.77;;;;;;;;;;5051048;28;20220;-82
2023/10/05 09:24:40;;;;;;;7.57;2.97;;;;;;;;;;5050440;28;20240;-83
2023/10/05 09:27:12;;;;;;;4.53;2.87;;;;;;;;;;5050847;28;20581;-83
2023/10/05 09:29:40;;;;;;;5.63;2.50;;;;;;;;;;5050362;28;20242;-83
2023/10/05 09:32:11;;;;;;;7.57;2.77;;;;;;;;;;5050685;28;20202;-83
2023/10/05 09:34:43;;;;;;;7.43;2.73;;;;;;;;;;5048716;28;20233;-83
2023/10/05 09:37:11;;;;;;;5.23;2.53;;;;;;;;;;5050596;28;20305;-83
2023/10/05 09:39:49;;;;;;;5.83;2.97;;;;;;;;;;5049656;28;20235;-83
2023/10/05 09:42:16;;;;;;;4.17;2.80;;;;;;;;;;5050273;28;20664;-83
2023/10/05 09:44:51;;;;;;;5.80;2.87;;;;;;;;;;5050172;28;20699;-84
2023/10/05 09:47:21;;;;;;;4.40;2.40;;;;;;;;;;5050890;28;20197;-83
2023/10/05 09:49:50;;;;;;;6.77;3.30;;;;;;;;;;5049991;28;20240;-84
2023/10/05 09:52:19;;;;;;;4.67;2.57;;;;;;;;;;5050887;28;20206;-83
2023/10/05 09:54:47;;;;;;;4.97;2.80;;;;;;;;;;5053271;28;20233;-84
2023/10/05 09:57:15;;;;;;;3.47;2.40;;;;;;;;;;5054463;28;20229;-83
2023/10/05 09:59:48;;;;;;;4.05;2.50;;;;;;;;;;5053870;28;20244;-83
2023/10/05 10:02:17;;;;;;;5.30;2.33;;;;;;;;;;5054447;28;20210;-84
2023/10/05 10:04:47;;;;;;;8.07;2.63;;;;;;;;;;5053658;28;20279;-83
2023/10/05 10:07:22;;;;;;;3.05;2.28;;;;;;;;;;5054638;28;20212;-84
2023/10/05 10:09:53;;;;;;;4.78;2.70;;;;;;;;;;5053428;28;20243;-83
2023/10/05 10:12:29;;;;;;;4.03;2.10;;;;;;;;;;5053978;28;20210;-82
2023/10/05 10:14:58;;;;;;;7.50;2.50;;;;;;;;;;5053211;28;20225;-83
2023/10/05 10:17:29;;;;;;;5.28;2.72;;;;;;;;;;5053732;28;20788;-83
2023/10/05 10:20:17;;;;;;;4.30;2.20;;;;;;;;;;5045446;28;20229;-84
2023/10/05 10:22:50;;;;;;;4.68;2.28;;;;;;;;;;5053920;28;20208;-83
2023/10/05 10:25:38;;;;;;;6.45;2.50;;;;;;;;;;5053241;28;20283;-82
2023/10/05 10:28:16;;;;;;;3.90;2.05;;;;;;;;;;5054029;28;20410;-82
2023/10/05 10:30:47;;;;;;;5.50;2.72;;;;;;;;;;5053444;28;20230;-82
2023/10/05 10:33:27;;;;;;;4.70;2.30;;;;;;;;;;5053434;28;20214;-82
2023/10/05 10:35:56;;;;;;;5.28;2.70;;;;;;;;;;5033317;28;20716;-82
2023/10/05 10:38:24;;;;;;;5.70;2.65;;;;;;;;;;5032855;28;20237;-82
2023/10/05 10:41:10;;;;;;;7.75;2.35;;;;;;;;;;5036570;28;20212;-82
2023/10/05 10:43:37;;;;;;;3.83;2.40;;;;;;;;;;5044205;28;20226;-82
2023/10/05 10:46:13;;;;;;;6.00;2.50;;;;;;;;;;5033412;28;20544;-81
2023/10/05 10:48:57;;;;;;;6.10;2.28;;;;;;;;;;5050681;28;20691;-82
2023/10/05 10:51:27;;;;;;;5.53;2.65;;;;;;;;;;5044249;28;20581;-82
2023/10/05 10:53:59;;;;;;;5.65;2.20;;;;;;;;;;5041322;28;20570;-82
2023/10/05 10:56:30;;;;;;;4.90;2.45;;;;;;;;;;5040816;28;20221;-83
2023/10/05 10:59:09;;;;;;;6.47;2.70;;;;;;;;;;5033060;28;20669;-83
2023/10/05 11:01:43;;;;;;;7.68;2.92;;;;;;;;;;5036602;28;20584;-82
2023/10/05 11:04:23;;;;;;;7.43;2.60;;;;;;;;;;5037513;28;20222;-83
2023/10/05 11:06:56;;;;;;;2.97;2.13;;;;;;;;;;5042264;28;20228;-83
2023/10/05 11:09:35;;;;;;;5.70;2.33;;;;;;;;;;5047620;28;20234;-82
2023/10/05 11:12:11;;;;;;;7.80;3.20;;;;;;;;;;5041568;28;20210;-82
2023/10/05 11:14:40;;;;;;;5.13;2.80;;;;;;;;;;5040872;28;20291;-84
2023/10/05 11:17:12;;;;;;;4.40;2.42;;;;;;;;;;5037989;28;20249;-83
2023/10/05 11:19:40;;;;;;;6.25;2.67;;;;;;;;;;5043084;28;20237;-83
2023/10/05 11:22:11;;;;;;;3.45;2.67;;;;;;;;;;5041358;28;20203;-82
2023/10/05 11:25:23;;;;;;;6.47;2.60;;;;;;;;;;5041004;28;20230;-83
2023/10/05 11:27:55;;;;;;;3.00;2.35;;;;;;;;;;5025224;28;20217;-83
2023/10/05 11:30:24;;;;;;;7.05;3.17;;;;;;;;;;5052075;28;20667;-82
2023/10/05 11:32:57;;;;;;;8.52;3.00;;;;;;;;;;5033310;28;20242;-83
2023/10/05 11:35:28;;;;;;;6.82;2.67;;;;;;;;;;5040463;28;20231;-84
2023/10/05 11:37:59;;;;;;;6.22;2.50;;;;;;;;;;5049074;28;20211;-84
2023/10/05 11:40:31;;;;;;;5.28;2.50;;;;;;;;;;5039201;28;20241;-84
2023/10/05 11:42:58;;;;;;;4.22;2.50;;;;;;;;;;5045993;28;20215;-84
2023/10/05 11:45:25;;;;;;;4.82;3.00;;;;;;;;;;5028318;28;20608;-84
2023/10/05 11:47:52;;;;;;;5.57;2.78;;;;;;;;;;5028323;28;20210;-84
2023/10/05 11:50:32;;;;;;;6.03;2.83;;;;;;;;;;5036137;28;20266;-84
2023/10/05 11:53:06;;;;;;;5.50;3.03;;;;;;;;;;5035165;28;20241;-84
2023/10/05 11:55:35;;;;;;;7.55;2.38;;;;;;;;;;5042063;28;20448;-84
2023/10/05 11:58:02;;;;;;;5.78;2.78;;;;;;;;;;5031685;28;20642;-84
2023/10/05 12:00:31;;;;;;;5.82;2.63;;;;;;;;;;5046823;28;20237;-84
2023/10/05 12:02:58;;;;;;;4.88;2.58;;;;;;;;;;5051694;28;20582;-84
2023/10/05 12:05:28;;;;;;;7.03;2.72;;;;;;;;;;5042238;28;20230;-84
2023/10/05 12:07:59;;;;;;;7.35;2.95;;;;;;;;;;5051485;28;20267;-84
2023/10/05 12:10:28;;;;;;;7.38;3.00;;;;;;;;;;5050642;28;20268;-84
2023/10/05 12:12:55;;;;;;;5.90;2.67;;;;;;;;;;5040396;28;20206;-84
2023/10/05 12:15:22;;;;;;;4.50;2.42;;;;;;;;;;5030875;28;20234;-84
2023/10/05 12:17:50;;;;;;;8.05;3.33;;;;;;;;;;5032778;28;20210;-84
2023/10/05 12:20:18;;;;;;;4.20;2.50;;;;;;;;;;5038187;28;20786;-85
2023/10/05 12:22:46;;;;;;;5.00;2.72;;;;;;;;;;5034300;28;20272;-85
2023/10/05 12:25:15;;;;;;;5.05;2.28;;;;;;;;;;5042576;28;20230;-84
2023/10/05 12:27:45;;;;;;;9.65;3.42;;;;;;;;;;5042627;28;20203;-83
2023/10/05 12:30:14;;;;;;;5.07;2.72;;;;;;;;;;5082614;22;20320;-85
2023/10/05 12:32:42;;;;;;;5.25;2.95;;;;;;;;;;5070082;28;20209;-85
2023/10/05 12:35:13;;;;;;;6.72;2.80;;;;;;;;;;5060104;28;20229;-86
2023/10/05 12:37:44;;;;;;;6.28;2.70;;;;;;;;;;5074752;28;20253;-85
2023/10/05 12:40:26;;;;;;;6.18;2.60;;;;;;;;;;5050669;28;20226;-84
2023/10/05 12:42:55;;;;;;;9.18;2.88;;;;;;;;;;5052863;28;20214;-85
2023/10/05 12:45:23;;;;;;;6.60;2.58;;;;;;;;;;5039440;28;20234;-85
2023/10/05 12:47:52;;;;;;;5.55;2.70;;;;;;;;;;5050671;28;20279;-85
2023/10/05 12:50:20;;;;;;;6.63;2.55;;;;;;;;;;5057926;28;20292;-85
2023/10/05 12:52:50;;;;;;;2.72;2.10;;;;;;;;;;5070793;28;20263;-87
2023/10/05 12:55:18;;;;;;;4.40;2.13;;;;;;;;;;5064611;28;20718;-85
2023/10/05 12:57:46;;;;;;;3.78;2.42;;;;;;;;;;5072356;28;20267;-86
2023/10/05 13:00:21;;;;;;;4.85;2.53;;;;;;;;;;5057305;28;20268;-86
2023/10/05 13:02:51;;;;;;;8.27;2.20;;;;;;;;;;5051233;28;20217;-86
2023/10/05 13:05:20;;;;;;;5.70;2.53;;;;;;;;;;5057839;28;20233;-87
2023/10/05 13:07:48;;;;;;;3.53;2.25;;;;;;;;;;5058039;28;20576;-87
2023/10/05 13:10:26;;;;;;;6.45;2.42;;;;;;;;;;5050940;28;20246;-88
2023/10/05 13:12:54;;;;;;;5.15;2.13;;;;;;;;;;5074171;28;20244;-88
2023/10/05 13:15:25;;;;;;;5.57;2.17;;;;;;;;;;5060937;28;20233;-88
2023/10/05 13:17:56;;;;;;;2.97;2.17;;;;;;;;;;5057584;28;20226;-88
2023/10/05 13:20:27;;;;;;;4.00;2.00;;;;;;;;;;5070758;28;20253;-88
2023/10/05 13:22:57;;;;;;;4.25;2.28;;;;;;;;;;5073164;28;20194;-88
2023/10/05 13:25:26;;;;;;;5.15;2.47;;;;;;;;;;5043764;28;20263;-88
2023/10/05 13:27:55;;;;;;;6.55;2.50;;;;;;;;;;5030658;28;20210;-86
2023/10/05 13:30:27;;;;;;;4.93;2.10;;;;;;;;;;5034764;28;20238;-88
2023/10/05 13:33:00;;;;;;;3.72;1.92;;;;;;;;;;5028255;28;20463;-89
2023/10/05 13:35:32;;;;;;;5.25;2.20;;;;;;;;;;5019752;28;20231;-88
2023/10/05 13:38:07;;;;;;;5.88;2.08;;;;;;;;;;5038589;28;20210;-89
2023/10/05 13:40:37;;;;;;;6.63;2.38;;;;;;;;;;5046033;28;20292;-87
2023/10/05 13:43:05;;;;;;;4.95;2.10;;;;;;;;;;5039038;28;20242;-87
2023/10/05 13:45:34;;;;;;;2.85;2.17;;;;;;;;;;5049682;28;20252;-87
2023/10/05 13:48:02;;;;;;;8.48;2.38;;;;;;;;;;5054776;28;21056;-86
2023/10/05 13:50:30;;;;;;;3.40;2.13;;;;;;;;;;5046281;28;20671;-86
2023/10/05 13:52:57;;;;;;;2.85;1.88;;;;;;;;;;5048100;28;20214;-87
2023/10/05 13:55:27;;;;;;;6.35;2.20;;;;;;;;;;5048386;28;20230;-88
2023/10/05 13:57:58;;;;;;;3.58;2.03;;;;;;;;;;5049251;28;20243;-89
2023/10/05 14:00:25;;;;;;;5.85;2.20;;;;;;;;;;5054811;28;20316;-87
2023/10/05 14:02:54;;;;;;;2.53;1.98;;;;;;;;;;5046490;28;20234;-89
2023/10/05 14:05:22;;;;;;;4.75;1.90;;;;;;;;;;5045019;28;20230;-91
2023/10/05 14:07:51;;;;;;;3.60;1.83;;;;;;;;;;5056619;28;20202;-87
2023/10/05 14:10:20;;;;;;;3.97;1.88;;;;;;;;;;5043991;28;20226;-91
2023/10/05 14:12:47;;;;;;;6.70;1.98;;;;;;;;;;5046514;28;20231;-88
2023/10/05 14:15:24;;;;;;;3.38;2.17;;;;;;;;;;5046024;28;20234;-94
2023/10/05 14:17:51;;;;;;;6.45;2.22;;;;;;;;;;5050834;28;20313;-91
2023/10/05 14:20:26;;;;;;;3.53;2.03;;;;;;;;;;5058956;28;20237;-91
2023/10/05 14:23:06;;;;;;;4.07;2.10;;;;;;;;;;5059508;28;20730;-91
2023/10/05 14:25:33;;;;;;;3.27;2.07;;;;;;;;;;5055698;28;20229;-90
2023/10/05 14:28:01;;;;;;;6.15;2.10;;;;;;;;;;5041524;28;20578;-90
2023/10/05 14:30:37;;;;;;;2.83;1.50;;;;;;;;;;5041440;28;20605;-90
2023/10/05 14:33:17;;;;;;;3.08;1.67;;;;;;;;;;5056276;28;20240;-90
2023/10/05 14:35:59;;;;;;;2.75;1.75;;;;;;;;;;5039554;28;20222;-92
2023/10/05 14:38:26;;;;;;;2.23;1.53;;;;;;;;;;5058453;28;20636;-88
2023/10/05 14:40:56;;;;;;;4.07;2.17;;;;;;;;;;5055931;28;20696;-87
2023/10/05 14:43:30;;;;;;;2.55;2.10;;;;;;;;;;5047381;28;20214;-87
2023/10/05 14:45:59;;;;;;;2.97;2.03;;;;;;;;;;5054336;28;20214;-87
2023/10/05 14:48:30;;;;;;;3.53;1.60;;;;;;;;;;5061259;28;20232;-87
2023/10/05 14:50:59;;;;;;;3.85;1.80;;;;;;;;;;5049663;28;20226;-87
2023/10/05 14:53:26;;;;;;;2.85;2.22;;;;;;;;;;5065795;28;20216;-85
2023/10/05 14:55:56;;;;;;;2.83;2.00;;;;;;;;;;5054243;28;20552;-86
2023/10/05 14:58:23;;;;;;;6.43;2.00;;;;;;;;;;5055621;28;20235;-86
2023/10/05 15:00:50;;;;;;;6.88;1.80;;;;;;;;;;5051554;28;20230;-86
2023/10/05 15:03:17;;;;;;;2.55;1.48;;;;;;;;;;5056807;28;20202;-87
2023/10/05 15:05:44;;;;;;;2.63;1.87;;;;;;;;;;5049254;28;20203;-86